LTAT/MLX METAR and TAF weather

Enter ICAO airport designator
Station Type Date Time Source
LTAT METAR 2020/08/12 17:20 UTC NOAA

LTAT 121720Z 28008KT CAVOK 26/08 Q1008 NOSIG


Station Type Date Time Source
LTAT Decoded METAR 2020/08/12 17:20 UTC NOAA

Malatya / Erhac, Turkey (LTAT) 38-26N 038-05E 849M
Aug 12, 2020 - 01:20 PM EDT / 2020.08.12 1720 UTC
Wind: from the W (280 degrees) at 9 MPH (8 KT):0
Visibility: greater than 7 mile(s):0
Temperature: 78 F (26 C)
Dew Point: 46 F (8 C)
Relative Humidity: 31%
Pressure (altimeter): 29.77 in. Hg (1008 hPa)
ob: LTAT 121720Z 28008KT CAVOK 26/08 Q1008 NOSIG
cycle: 17

Station Type Date Time Source
LTAT TAF 2020/08/12 18:03 UTC NOAA

TAF LTAT 121640Z 1218/1318 29015KT CAVOK
BECMG 1220/1221 VRB02KT PROB30
TEMPO 1223/1303 21013KT
BECMG 1313/1315 31018KT

Example: see airport list